WetterOnline ( https://www.wetteronline.de )

Wetter aktuell Teltow

Aktuelles Wetter: Berlin-Dahlem (70m)

6-stündlich | Neueste Meldungen
Ortszeit Temperatur Wetter
Do, 25.04. 8:00 14.1° C leicht bewölkt
Do, 25.04. 2:00 15.2° C leicht bewölkt
Mi, 24.04. 20:00 20.4° C fast wolkenlos
Mi, 24.04. 14:00 21.0° C leicht bewölkt
Mi, 24.04. 8:00 12.8° C wolkig
Mi, 24.04. 2:00 13.5° C bewölkt
Di, 23.04. 20:00 15.0° C bedeckt
Di, 23.04. 14:00 19.2° C fast wolkenlos
Ortszeit Temperatur Wetter
Do, 25.04. 9:00 14.3° C leicht bewölkt
Do, 25.04. 8:00 14.1° C leicht bewölkt
Do, 25.04. 7:00 12.7° C leicht bewölkt
Do, 25.04. 6:00 14.0° C leicht bewölkt
Do, 25.04. 5:00 14.1° C leicht bewölkt
Do, 25.04. 4:00 13.7° C leicht bewölkt
Ortszeit Relative Feuchte Sichtweite
Do, 25.04. 8:00 78% 20 km
Do, 25.04. 2:00 73% 2.0 km
Mi, 24.04. 20:00 46% 25 km
Mi, 24.04. 14:00 50% 25 km
Mi, 24.04. 8:00 72% 30 km
Mi, 24.04. 2:00 60% 40 km
Di, 23.04. 20:00 58% 22 km
Di, 23.04. 14:00 38% 35 km
Ortszeit Relative Feuchte Sichtweite
Do, 25.04. 9:00 71% 40 km
Do, 25.04. 8:00 78% 20 km
Do, 25.04. 7:00 85% 20 km
Do, 25.04. 6:00 87% 20 km
Do, 25.04. 5:00 90% 17 km
Do, 25.04. 4:00 90% 15 km
Ortszeit Niederschlagsmenge Niederschlagsart
Do, 25.04. 8:00 0.2 l/m2 in 12 Std. Gewitter, Schauer
Do, 25.04. 2:00 0.0 l/m2 in 6 Std. -
Mi, 24.04. 20:00 0.0 l/m2 in 12 Std. -
Mi, 24.04. 14:00 0.0 l/m2 in 6 Std. -
Mi, 24.04. 8:00 0.0 l/m2 in 12 Std. -
Mi, 24.04. 2:00 0.0 l/m2 in 6 Std. -
Di, 23.04. 20:00 0.1 l/m2 in 12 Std. Regen
Di, 23.04. 14:00 0.0 l/m2 in 6 Std. -
Ortszeit Niederschlagsmenge Niederschlagsart
Do, 25.04. 9:00 keine Meldung -
Do, 25.04. 8:00 keine Meldung -
Do, 25.04. 7:00 keine Meldung -
Do, 25.04. 6:00 keine Meldung -
Do, 25.04. 5:00 keine Meldung -
Do, 25.04. 4:00 keine Meldung -
Ortszeit Stärke Spitze Richtung
km/h Bft. km/h Grad Sektor
Do, 25.04. 8:00 14 3 - 260° W
Do, 25.04. 2:00 11 2 - 170° S
Mi, 24.04. 20:00 14 3 - 140° SO
Mi, 24.04. 14:00 18 3 - 130° SO
Mi, 24.04. 8:00 22 4 47 140° SO
Mi, 24.04. 2:00 25 4 58 150° SO
Di, 23.04. 20:00 29 5 61 110° O
Di, 23.04. 14:00 32 5 61 120° SO
Ortszeit Stärke Spitze Richtung
km/h Bft. km/h Grad Sektor
Do, 25.04. 9:00 7 2 - 260° W
Do, 25.04. 8:00 14 3 - 260° W
Do, 25.04. 7:00 11 2 - 250° W
Do, 25.04. 6:00 11 2 - 280° W
Do, 25.04. 5:00 14 3 - 240° SW
Do, 25.04. 4:00 11 2 - 220° SW
Ortszeit Untergrenze Bedeckung Gattung
total tief tief mittel hoch
Do, 25.04. 8:00 3600 m 5/8 5/8 - Ac Ci
Do, 25.04. 2:00 8700 m 6/8 6/8 - Ac Ci
Mi, 24.04. 20:00 7500 m 1/8 0/8 - - Ci
Mi, 24.04. 14:00 6900 m 7/8 5/8 - - Cs
Mi, 24.04. 8:00 3600 m 7/8 7/8 - As -
Mi, 24.04. 2:00 1050 m 7/8 7/8 Sc - -
Di, 23.04. 20:00 1800 m 8/8 7/8 Sc - -
Di, 23.04. 14:00 2700 m 2/8 2/8 - Ac -
Ortszeit Bedeckungsgrad in Achtel und Wolkenuntergrenze
Do, 25.04. 9:00 4(3900m)
Do, 25.04. 8:00 4(3600m)
Do, 25.04. 7:00 1(1080m)
Do, 25.04. 6:00 3(3900m) 3(8400m)
Do, 25.04. 5:00 5(3600m) 4(8400m)
Do, 25.04. 4:00 6(3000m)
Ortszeit Luftdruck NN (hPa) Tendenz (hPa in 3 Std.)
Do, 25.04. 8:00 1011 + 2,7
Do, 25.04. 2:00 1007 + 0,3
Mi, 24.04. 20:00 1006 + 0,1
Mi, 24.04. 14:00 1007 - 0,1
Mi, 24.04. 8:00 1006 0,0
Mi, 24.04. 2:00 1007 0,0
Di, 23.04. 20:00 1007 - 1,2
Di, 23.04. 14:00 1009 - 2,1
Ortszeit Luftdruck NN (hPa) Tendenz (hPa in 3 Std.)
Do, 25.04. 9:00 1012 + 2,9
Do, 25.04. 8:00 1011 + 2,7
Do, 25.04. 7:00 1010 + 2,8
Do, 25.04. 6:00 1009 + 1,9
Do, 25.04. 5:00 1009 + 1,7
Do, 25.04. 4:00 1008 + 1,3
Ortszeit Schneehöhe (cm)
Do, 25.04. 8:00 0
Do, 25.04. 2:00 0
Mi, 24.04. 20:00 0
Mi, 24.04. 14:00 0
Mi, 24.04. 8:00 0
Mi, 24.04. 2:00 0
Di, 23.04. 20:00 0
Di, 23.04. 14:00 0
Ortszeit Schneehöhe (cm)
Do, 25.04. 9:00 -
Do, 25.04. 8:00 0
Do, 25.04. 7:00 -
Do, 25.04. 6:00 -
Do, 25.04. 5:00 -
Do, 25.04. 4:00 -
Link zu dieser Seite / Seite empfehlen

Das Wetter in ...